Time;durP1;ratioP1;P1;durP2;ratioP2;P2;SDS_P1;SDS_P2;PMS_P1;PMS_P2;Temp;Humidity;BMP_temperature;BMP_pressure;BME280_temperature;BME280_humidity;BME280_pressure;Samples;Min_cycle;Max_cycle;Signal;HPM_P1;HPM_P2
2021/09/20 00:02:26;;;;;;;7.37;6.67;;;;;;;12.65;76.13;101169.66;5077655;28;20202;-79
2021/09/20 00:04:52;;;;;;;7.93;6.90;;;;;;;12.66;76.00;101179.41;5077338;28;20240;-80
2021/09/20 00:07:19;;;;;;;7.10;6.27;;;;;;;12.64;75.79;101178.63;5077808;28;20725;-81
2021/09/20 00:09:46;;;;;;;7.57;6.57;;;;;;;12.62;75.68;101178.72;5077823;28;21000;-80
2021/09/20 00:12:13;;;;;;;7.50;6.70;;;;;;;12.61;75.46;101181.50;5076898;28;20202;-80
2021/09/20 00:14:41;;;;;;;7.63;6.67;;;;;;;12.60;75.58;101191.31;5077781;28;20215;-80
2021/09/20 00:17:08;;;;;;;8.30;6.73;;;;;;;12.59;76.15;101188.75;5080048;28;20253;-80
2021/09/20 00:19:35;;;;;;;8.97;6.60;;;;;;;12.58;76.23;101179.88;5079862;28;20300;-79
2021/09/20 00:22:01;;;;;;;8.90;6.60;;;;;;;12.58;76.68;101181.69;5079894;28;20233;-79
2021/09/20 00:24:28;;;;;;;8.53;6.73;;;;;;;12.58;76.83;101179.88;5080296;28;20231;-79
2021/09/20 00:26:54;;;;;;;8.67;6.07;;;;;;;12.59;76.80;101178.91;5079869;28;20287;-81
2021/09/20 00:29:21;;;;;;;6.57;5.97;;;;;;;12.59;76.52;101183.41;5080236;28;20209;-81
2021/09/20 00:31:49;;;;;;;5.73;5.10;;;;;;;12.57;76.16;101182.63;5077592;28;20204;-79
2021/09/20 00:34:16;;;;;;;6.23;5.43;;;;;;;12.53;76.57;101179.31;5076314;28;20325;-79
2021/09/20 00:36:43;;;;;;;7.07;5.77;;;;;;;12.52;76.16;101180.28;5076803;28;20311;-79
2021/09/20 00:39:10;;;;;;;6.07;5.27;;;;;;;12.51;76.21;101184.75;5076352;28;20631;-81
2021/09/20 00:41:36;;;;;;;6.10;5.47;;;;;;;12.49;76.13;101186.66;5078148;28;20208;-80
2021/09/20 00:44:03;;;;;;;5.83;4.97;;;;;;;12.47;76.09;101185.03;5081605;28;20205;-81
2021/09/20 00:46:30;;;;;;;4.80;4.30;;;;;;;12.44;76.08;101182.56;5082424;28;20277;-81
2021/09/20 00:48:58;;;;;;;6.40;4.53;;;;;;;12.42;76.01;101181.78;5085269;28;20770;-82
2021/09/20 00:51:27;;;;;;;4.93;4.40;;;;;;;12.39;76.16;101180.16;5093778;28;20305;-81
2021/09/20 00:53:54;;;;;;;5.80;3.77;;;;;;;12.37;76.14;101181.22;5094679;28;20211;-81
2021/09/20 00:56:21;;;;;;;6.30;4.13;;;;;;;12.35;76.00;101184.00;5094645;28;20204;-82
2021/09/20 00:58:48;;;;;;;4.77;3.97;;;;;;;12.33;75.90;101185.03;5087111;28;20560;-81
2021/09/20 01:01:15;;;;;;;4.43;3.80;;;;;;;12.30;76.20;101185.22;5073928;28;20473;-82
2021/09/20 01:03:41;;;;;;;3.50;3.20;;;;;;;12.29;76.10;101188.84;5074642;28;20284;-82
2021/09/20 01:06:09;;;;;;;4.17;3.13;;;;;;;12.27;75.99;101180.94;5073840;28;20231;-80
2021/09/20 01:08:36;;;;;;;5.27;3.73;;;;;;;12.25;76.24;101193.53;5075028;28;20877;-80
2021/09/20 01:11:03;;;;;;;4.53;3.33;;;;;;;12.24;76.08;101189.13;5073740;28;20215;-80
2021/09/20 01:13:29;;;;;;;4.20;3.40;;;;;;;12.23;76.13;101191.91;5073654;28;20738;-80
2021/09/20 01:15:56;;;;;;;4.60;3.60;;;;;;;12.22;76.27;101192.84;5073125;28;20211;-81
2021/09/20 01:18:23;;;;;;;6.73;3.80;;;;;;;12.22;76.26;101193.69;5072936;28;20250;-80
2021/09/20 01:20:50;;;;;;;4.23;3.80;;;;;;;12.23;76.58;101190.09;5072248;28;20701;-82
2021/09/20 01:23:19;;;;;;;4.83;4.00;;;;;;;12.23;76.12;101186.56;5071674;28;20287;-82
2021/09/20 01:25:45;;;;;;;6.37;4.10;;;;;;;12.24;76.29;101196.28;5072231;28;20625;-82
2021/09/20 01:28:12;;;;;;;5.33;3.90;;;;;;;12.22;76.29;101200.84;5072169;28;20738;-82
2021/09/20 01:30:39;;;;;;;5.67;4.00;;;;;;;12.20;76.25;101200.09;5072614;28;20228;-82
2021/09/20 01:33:06;;;;;;;6.03;4.10;;;;;;;12.19;76.35;101204.56;5071747;28;20202;-82
2021/09/20 01:35:33;;;;;;;4.63;3.63;;;;;;;12.18;76.34;101200.22;5072081;28;20231;-83
2021/09/20 01:37:59;;;;;;;6.43;4.17;;;;;;;12.16;76.25;101204.78;5072130;28;20779;-83
2021/09/20 01:40:28;;;;;;;4.30;3.80;;;;;;;12.16;76.38;101196.78;5071838;28;20291;-82
2021/09/20 01:42:55;;;;;;;4.20;3.60;;;;;;;12.14;76.13;101196.00;5072681;28;20258;-82
2021/09/20 01:45:23;;;;;;;4.20;3.73;;;;;;;12.14;76.49;101196.00;5072281;28;20726;-82
2021/09/20 01:47:50;;;;;;;7.07;3.47;;;;;;;12.14;76.36;101206.69;5071725;28;20276;-83
2021/09/20 01:50:16;;;;;;;6.03;3.27;;;;;;;12.13;76.43;101210.31;5073129;28;20204;-83
2021/09/20 01:52:43;;;;;;;3.33;2.93;;;;;;;12.12;76.51;101204.09;5072363;28;20204;-82
2021/09/20 01:55:11;;;;;;;4.20;3.13;;;;;;;12.13;76.35;101196.94;5071928;28;20297;-81
2021/09/20 01:57:40;;;;;;;3.83;3.13;;;;;;;12.12;76.45;101197.91;5072675;28;20305;-81
2021/09/20 02:00:10;;;;;;;5.23;3.00;;;;;;;12.11;76.26;101206.88;5075446;28;20208;-82
2021/09/20 02:02:36;;;;;;;5.10;3.10;;;;;;;12.09;76.26;101203.44;5075996;28;20310;-81
2021/09/20 02:05:03;;;;;;;3.60;3.13;;;;;;;12.09;76.54;101204.28;5075604;28;20212;-82
2021/09/20 02:07:30;;;;;;;3.00;2.70;;;;;;;12.07;76.29;101202.66;5075401;28;20307;-82
2021/09/20 02:09:57;;;;;;;4.87;3.07;;;;;;;12.05;76.47;101213.44;5075100;28;20292;-81
2021/09/20 02:12:23;;;;;;;7.50;2.90;;;;;;;12.05;76.56;101199.22;5075759;28;20663;-83
2021/09/20 02:14:51;;;;;;;3.70;2.90;;;;;;;12.04;76.38;101208.19;5075634;28;20692;-82
2021/09/20 02:17:18;;;;;;;3.17;2.57;;;;;;;12.02;76.31;101205.59;5075475;28;20753;-81
2021/09/20 02:19:45;;;;;;;4.73;3.00;;;;;;;12.02;76.48;101207.41;5076057;28;20295;-81
2021/09/20 02:22:11;;;;;;;3.97;3.27;;;;;;;12.01;76.45;101213.69;5075647;28;20217;-81
2021/09/20 02:24:38;;;;;;;4.27;3.37;;;;;;;12.00;76.37;101214.69;5076219;28;20211;-82
2021/09/20 02:27:04;;;;;;;4.47;3.17;;;;;;;12.00;76.40;101212.00;5075547;28;20588;-82
2021/09/20 02:29:31;;;;;;;5.47;3.30;;;;;;;11.99;76.61;101212.97;5075681;28;20296;-82
2021/09/20 02:31:59;;;;;;;5.17;3.20;;;;;;;12.00;76.53;101223.50;5069874;28;20690;-81
2021/09/20 02:34:25;;;;;;;5.13;3.13;;;;;;;11.98;76.67;101217.44;5087991;28;20211;-81
2021/09/20 02:36:54;;;;;;;6.73;3.40;;;;;;;11.99;76.53;101218.28;5090862;28;20288;-81
2021/09/20 02:39:21;;;;;;;3.93;3.20;;;;;;;11.98;76.51;101217.44;5078572;28;20249;-81
2021/09/20 02:41:48;;;;;;;3.13;2.83;;;;;;;11.98;76.64;101219.25;5079932;28;20200;-81
2021/09/20 02:44:15;;;;;;;7.00;3.33;;;;;;;11.96;76.60;101216.66;5075752;28;20207;-81
2021/09/20 02:46:41;;;;;;;4.67;3.43;;;;;;;11.97;76.81;101220.19;5066779;28;20304;-80
2021/09/20 02:49:09;;;;;;;4.73;3.30;;;;;;;11.95;76.63;101222.94;5075160;28;20250;-81
2021/09/20 02:51:36;;;;;;;4.97;2.93;;;;;;;11.94;76.63;101225.72;5075104;28;20292;-83
2021/09/20 02:54:03;;;;;;;5.73;3.13;;;;;;;11.94;76.49;101220.38;5076005;28;20651;-81
2021/09/20 02:56:29;;;;;;;4.13;3.00;;;;;;;11.93;76.60;101224.00;5075637;28;20301;-84
2021/09/20 02:58:56;;;;;;;4.10;2.60;;;;;;;11.93;76.37;101229.34;5073007;28;20735;-81
2021/09/20 03:01:23;;;;;;;5.90;3.30;;;;;;;11.91;76.54;101223.22;5074927;28;20296;-82
2021/09/20 03:03:49;;;;;;;3.90;3.30;;;;;;;11.90;76.53;101230.38;5075722;28;20205;-82
2021/09/20 03:06:17;;;;;;;3.37;2.37;;;;;;;11.90;76.38;101225.03;5075106;28;20301;-80
2021/09/20 03:08:44;;;;;;;2.73;2.43;;;;;;;11.90;76.42;101232.19;5074468;28;20231;-80
2021/09/20 03:11:10;;;;;;;4.50;2.50;;;;;;;11.88;76.12;101232.25;5075112;28;20211;-82
2021/09/20 03:13:37;;;;;;;3.13;2.30;;;;;;;11.88;76.16;101239.41;5074174;28;20211;-83
2021/09/20 03:16:05;;;;;;;3.43;2.40;;;;;;;11.87;76.11;101235.03;5074423;28;20301;-83
2021/09/20 03:18:31;;;;;;;4.30;2.73;;;;;;;11.86;76.00;101239.50;5075122;28;20694;-83
2021/09/20 03:20:58;;;;;;;4.83;2.70;;;;;;;11.86;76.05;101250.19;5074537;28;20225;-82
2021/09/20 03:23:27;;;;;;;3.90;2.53;;;;;;;11.86;76.13;101251.97;5074911;28;20206;-81
2021/09/20 03:25:54;;;;;;;3.70;2.67;;;;;;;11.85;75.99;101250.25;5074845;28;20215;-82
2021/09/20 03:28:20;;;;;;;6.43;3.13;;;;;;;11.84;75.96;101252.06;5074871;28;20889;-82
2021/09/20 03:30:47;;;;;;;4.20;2.80;;;;;;;11.84;76.10;101257.41;5074570;28;20244;-81
2021/09/20 03:33:14;;;;;;;7.60;3.33;;;;;;;11.83;76.08;101255.69;5073755;28;20289;-81
2021/09/20 03:35:40;;;;;;;4.30;2.53;;;;;;;11.84;76.10;101260.06;5074154;28;20321;-82
2021/09/20 03:38:07;;;;;;;5.67;2.93;;;;;;;11.83;76.12;101263.69;5073743;28;20582;-82
2021/09/20 03:40:35;;;;;;;6.07;2.90;;;;;;;11.81;76.18;101266.47;5073269;28;20321;-81
2021/09/20 03:43:02;;;;;;;4.03;3.07;;;;;;;11.81;76.13;101252.28;5073376;28;20299;-81
2021/09/20 03:45:28;;;;;;;3.87;2.30;;;;;;;11.81;76.05;101258.47;5073491;28;20656;-81
2021/09/20 03:47:55;;;;;;;5.73;2.47;;;;;;;11.79;75.99;101260.38;5072433;28;20219;-81
2021/09/20 03:50:21;;;;;;;4.13;2.60;;;;;;;11.81;76.30;101265.63;5073775;28;20205;-82
2021/09/20 03:52:48;;;;;;;3.90;2.83;;;;;;;11.79;76.07;101268.38;5073611;28;20207;-82
2021/09/20 03:55:15;;;;;;;3.97;3.07;;;;;;;11.78;75.98;101264.00;5055255;28;20206;-82
2021/09/20 03:57:43;;;;;;;3.30;2.97;;;;;;;11.78;76.11;101266.66;5071476;28;20225;-83
2021/09/20 04:00:11;;;;;;;5.30;2.97;;;;;;;11.77;76.17;101262.28;5071801;28;20214;-82
2021/09/20 04:02:38;;;;;;;4.67;2.80;;;;;;;11.76;76.30;101262.34;5082407;28;20208;-82
2021/09/20 04:05:06;;;;;;;4.53;2.90;;;;;;;11.75;76.20;101264.13;5092255;28;20198;-81
2021/09/20 04:07:32;;;;;;;5.37;2.93;;;;;;;11.74;76.07;101261.56;5072740;28;20658;-81
2021/09/20 04:09:59;;;;;;;3.50;2.37;;;;;;;11.72;76.25;101263.44;5072853;28;20748;-81
2021/09/20 04:12:26;;;;;;;3.83;2.50;;;;;;;11.71;76.36;101259.91;5073404;28;20672;-81
2021/09/20 04:14:54;;;;;;;3.43;2.30;;;;;;;11.72;76.29;101258.09;5073711;28;20664;-82
2021/09/20 04:17:23;;;;;;;2.87;2.00;;;;;;;11.71;76.41;101261.72;5078529;28;20755;-82
2021/09/20 04:19:49;;;;;;;2.73;1.90;;;;;;;11.70;76.25;101268.88;5065615;28;20203;-81
2021/09/20 04:22:16;;;;;;;4.30;2.50;;;;;;;11.70;76.31;101270.69;5064975;28;20232;-81
2021/09/20 04:24:43;;;;;;;5.37;2.40;;;;;;;11.71;76.46;101267.91;5063381;28;20317;-82
2021/09/20 04:27:09;;;;;;;3.73;2.07;;;;;;;11.70;76.38;101268.88;5064132;28;20234;-81
2021/09/20 04:29:36;;;;;;;3.17;1.87;;;;;;;11.70;76.31;101276.00;5061376;28;20324;-82
2021/09/20 04:32:04;;;;;;;4.23;2.03;;;;;;;11.69;76.23;101272.47;5060171;28;20301;-82
2021/09/20 04:34:31;;;;;;;3.27;2.10;;;;;;;11.68;76.13;101277.91;5060598;28;20290;-82
2021/09/20 04:36:58;;;;;;;3.03;1.97;;;;;;;11.68;76.27;101280.56;5061482;28;20224;-82
2021/09/20 04:39:25;;;;;;;5.17;1.80;;;;;;;11.67;76.24;101289.53;5061399;28;20565;-82
2021/09/20 04:41:51;;;;;;;2.13;1.63;;;;;;;11.67;76.34;101287.72;5063955;28;20295;-82
2021/09/20 04:44:18;;;;;;;2.53;2.13;;;;;;;11.67;76.28;101295.72;5063450;28;20288;-81
2021/09/20 04:46:44;;;;;;;3.20;2.00;;;;;;;11.66;76.13;101296.66;5062164;28;20244;-81
2021/09/20 04:49:12;;;;;;;4.50;2.07;;;;;;;11.66;76.24;101299.34;5061452;28;20220;-81
2021/09/20 04:51:39;;;;;;;5.33;2.37;;;;;;;11.66;76.33;101301.16;5070989;28;20637;-83
2021/09/20 04:54:06;;;;;;;8.17;2.20;;;;;;;11.68;76.36;101307.25;5068805;28;20634;-82
2021/09/20 04:56:33;;;;;;;3.23;2.03;;;;;;;11.67;76.35;101309.06;5071503;28;20217;-82
2021/09/20 04:58:59;;;;;;;3.63;2.10;;;;;;;11.67;76.28;101309.06;5080438;28;20213;-82
2021/09/20 05:01:26;;;;;;;3.70;2.00;;;;;;;11.68;76.35;101309.94;5088614;28;20673;-81
2021/09/20 05:03:53;;;;;;;2.70;2.00;;;;;;;11.67;76.41;101309.06;5067975;28;20301;-81
2021/09/20 05:06:22;;;;;;;5.57;2.43;;;;;;;11.67;76.50;101317.06;5062186;28;20202;-81
2021/09/20 05:08:48;;;;;;;4.13;2.20;;;;;;;11.67;76.52;101313.53;5067441;28;20313;-82
2021/09/20 05:11:15;;;;;;;4.03;1.90;;;;;;;11.67;76.70;101313.53;5062592;28;20206;-81
2021/09/20 05:13:41;;;;;;;4.43;2.10;;;;;;;11.67;76.62;101317.06;5057412;28;20295;-82
2021/09/20 05:16:08;;;;;;;3.70;2.20;;;;;;;11.66;76.60;101314.47;5073948;28;20646;-82
2021/09/20 05:18:35;;;;;;;4.63;2.10;;;;;;;11.65;76.62;101321.63;5070947;28;20229;-83
2021/09/20 05:21:01;;;;;;;3.93;2.33;;;;;;;11.66;76.85;101325.16;5067123;28;20225;-82
2021/09/20 05:23:29;;;;;;;2.37;1.97;;;;;;;11.65;76.68;101324.28;5060646;28;20300;-82
2021/09/20 05:25:56;;;;;;;2.83;2.10;;;;;;;11.63;76.73;101326.22;5063341;28;20203;-81
2021/09/20 05:28:22;;;;;;;3.97;2.10;;;;;;;11.62;76.80;101316.50;5061515;28;20612;-81
2021/09/20 05:30:49;;;;;;;4.00;2.03;;;;;;;11.64;76.95;101319.06;5077498;28;20302;-82
2021/09/20 05:33:17;;;;;;;3.63;1.83;;;;;;;11.63;76.96;101325.34;5091246;28;20301;-82
2021/09/20 05:35:43;;;;;;;2.40;2.20;;;;;;;11.62;76.82;101315.63;5070277;28;20253;-83
2021/09/20 05:38:12;;;;;;;3.13;1.80;;;;;;;11.62;77.08;101332.50;5075240;28;20578;-82
2021/09/20 05:40:39;;;;;;;3.20;2.20;;;;;;;11.62;77.15;101335.16;5077800;28;20196;-82
2021/09/20 05:43:06;;;;;;;2.20;1.90;;;;;;;11.62;77.15;101329.84;5071806;28;20670;-83
2021/09/20 05:45:33;;;;;;;3.40;2.10;;;;;;;11.61;77.32;101333.44;5072141;28;20725;-82
2021/09/20 05:48:01;;;;;;;3.30;2.13;;;;;;;11.63;77.42;101334.22;5071642;28;20426;-82
2021/09/20 05:50:28;;;;;;;3.40;1.93;;;;;;;11.64;77.47;101337.75;5071773;28;20253;-82
2021/09/20 05:52:55;;;;;;;2.40;1.83;;;;;;;11.63;77.52;101339.56;5071720;28;20207;-82
2021/09/20 05:55:22;;;;;;;5.43;1.90;;;;;;;11.65;77.59;101348.31;5071767;28;20305;-82
2021/09/20 05:57:50;;;;;;;3.43;2.10;;;;;;;11.67;77.65;101351.75;5071712;28;20310;-82
2021/09/20 06:00:17;;;;;;;2.63;2.03;;;;;;;11.70;77.71;101356.06;5071668;28;20570;-82
2021/09/20 06:02:44;;;;;;;3.07;1.90;;;;;;;11.71;77.94;101352.44;5071404;28;20291;-82
2021/09/20 06:05:13;;;;;;;3.57;2.03;;;;;;;11.74;77.78;101358.47;5071686;28;20324;-82
2021/09/20 06:07:40;;;;;;;2.70;1.80;;;;;;;11.78;77.92;101359.19;5071648;28;20720;-82
2021/09/20 06:10:08;;;;;;;3.57;1.70;;;;;;;11.80;77.76;101355.50;5071618;28;20229;-82
2021/09/20 06:12:35;;;;;;;3.63;1.77;;;;;;;11.82;77.86;101358.91;5071886;28;20722;-82
2021/09/20 06:15:03;;;;;;;5.37;1.97;;;;;;;11.85;77.87;101349.88;5071357;28;20209;-81
2021/09/20 06:17:33;;;;;;;4.70;1.90;;;;;;;11.86;77.83;101356.94;5071872;28;20240;-82
2021/09/20 06:19:59;;;;;;;3.17;2.17;;;;;;;11.88;77.68;101357.72;5071129;28;20287;-82
2021/09/20 06:22:26;;;;;;;4.43;2.03;;;;;;;11.91;77.59;101359.34;5072053;28;20215;-82
2021/09/20 06:24:54;;;;;;;4.97;2.43;;;;;;;11.92;77.65;101364.59;5071549;28;20263;-82
2021/09/20 06:27:20;;;;;;;2.90;2.13;;;;;;;11.93;77.66;101368.13;5072007;28;20228;-82
2021/09/20 06:29:47;;;;;;;8.53;2.40;;;;;;;11.95;77.77;101367.09;5071527;28;20224;-82
2021/09/20 06:32:15;;;;;;;9.80;2.87;;;;;;;11.96;77.41;101365.28;5071148;28;20205;-82
2021/09/20 06:34:42;;;;;;;4.80;2.20;;;;;;;11.97;77.41;101361.69;5071481;28;20296;-83
2021/09/20 06:37:08;;;;;;;3.37;1.80;;;;;;;11.99;77.27;101367.78;5070930;28;20226;-83
2021/09/20 06:39:35;;;;;;;3.10;1.93;;;;;;;12.01;77.53;101368.53;5071169;28;20205;-83
2021/09/20 06:42:02;;;;;;;3.70;2.10;;;;;;;12.03;77.25;101358.63;5071424;28;20574;-82
2021/09/20 06:44:29;;;;;;;4.73;2.20;;;;;;;12.05;77.47;101359.41;5071985;28;20214;-82
2021/09/20 06:46:56;;;;;;;4.87;2.40;;;;;;;12.06;77.31;101359.31;5065801;28;20303;-82
2021/09/20 06:49:24;;;;;;;3.73;2.10;;;;;;;12.09;77.34;101360.97;5074224;28;20705;-82
2021/09/20 06:51:51;;;;;;;3.43;2.13;;;;;;;12.11;77.11;101361.72;5074555;28;20540;-83
2021/09/20 06:54:18;;;;;;;4.60;2.60;;;;;;;12.12;77.05;101360.78;5074455;28;20224;-83
2021/09/20 06:56:45;;;;;;;5.43;2.17;;;;;;;12.12;76.97;101353.63;5074436;28;20589;-83
2021/09/20 06:59:12;;;;;;;4.93;2.83;;;;;;;12.14;77.05;101362.41;5074195;28;20203;-84
2021/09/20 07:01:38;;;;;;;4.20;2.40;;;;;;;12.15;77.32;101357.94;5074652;28;20204;-83
2021/09/20 07:04:05;;;;;;;3.23;2.40;;;;;;;12.17;76.82;101356.03;5074605;28;20284;-82
2021/09/20 07:06:34;;;;;;;5.53;2.40;;;;;;;12.16;76.82;101360.53;5073949;28;20291;-82
2021/09/20 07:09:00;;;;;;;5.37;2.60;;;;;;;12.15;76.67;101363.28;5061282;28;20197;-82
2021/09/20 07:11:27;;;;;;;3.97;2.33;;;;;;;12.15;76.50;101365.94;5074623;28;20292;-83
2021/09/20 07:13:54;;;;;;;3.60;2.53;;;;;;;12.15;76.72;101369.47;5074787;28;20229;-82
2021/09/20 07:16:20;;;;;;;3.73;2.50;;;;;;;12.17;76.56;101374.72;5074526;28;20620;-82
2021/09/20 07:18:47;;;;;;;7.43;2.40;;;;;;;12.17;76.55;101366.72;5074888;28;20296;-82
2021/09/20 07:21:13;;;;;;;5.10;2.33;;;;;;;12.18;76.75;101376.47;5074154;28;20320;-83
2021/09/20 07:23:41;;;;;;;3.73;2.00;;;;;;;12.18;76.60;101371.94;5074896;28;20207;-83
2021/09/20 07:26:08;;;;;;;3.97;2.77;;;;;;;12.21;76.62;101378.06;5073901;28;20208;-83
2021/09/20 07:28:35;;;;;;;4.23;2.67;;;;;;;12.21;76.41;101370.03;5064513;28;20597;-83
2021/09/20 07:31:01;;;;;;;3.80;1.93;;;;;;;12.22;76.28;101375.31;5064476;28;20586;-81
2021/09/20 07:33:28;;;;;;;4.33;2.00;;;;;;;12.24;76.42;101377.88;5064336;28;20540;-82
2021/09/20 07:35:54;;;;;;;3.30;2.13;;;;;;;12.24;76.34;101372.53;5065297;28;20789;-82
2021/09/20 07:38:21;;;;;;;4.00;2.20;;;;;;;12.26;76.21;101379.53;5061218;28;20225;-82
2021/09/20 07:40:49;;;;;;;3.67;2.57;;;;;;;12.30;76.18;101381.06;5064925;28;20205;-82
2021/09/20 07:43:15;;;;;;;3.43;2.10;;;;;;;12.34;76.37;101385.28;5064019;28;20204;-82
2021/09/20 07:45:44;;;;;;;5.57;2.30;;;;;;;12.38;76.40;101386.78;5068102;28;20207;-82
2021/09/20 07:48:10;;;;;;;3.43;2.30;;;;;;;12.40;76.05;101398.25;5066625;28;20761;-82
2021/09/20 07:50:37;;;;;;;3.33;2.37;;;;;;;12.43;76.16;101387.41;5064558;28;20240;-82
2021/09/20 07:53:04;;;;;;;2.97;2.13;;;;;;;12.47;76.06;101399.63;5065976;28;20201;-82
2021/09/20 07:55:35;;;;;;;4.53;2.03;;;;;;;12.50;75.79;101399.44;5066707;28;20638;-83
2021/09/20 07:58:04;;;;;;;3.17;2.50;;;;;;;12.54;75.69;101404.63;5059972;28;20757;-82
2021/09/20 08:00:31;;;;;;;3.23;2.47;;;;;;;12.55;75.26;101406.31;5066488;28;20630;-82
2021/09/20 08:02:57;;;;;;;3.47;2.53;;;;;;;12.56;75.44;101406.22;5070066;28;20288;-83
2021/09/20 08:05:24;;;;;;;12.70;2.70;;;;;;;12.59;75.19;101408.72;5068998;28;20291;-83
2021/09/20 08:07:51;;;;;;;3.47;2.40;;;;;;;12.63;75.30;101412.94;5070526;28;20698;-83
2021/09/20 08:10:19;;;;;;;2.90;2.03;;;;;;;12.68;74.96;101413.53;5064282;28;20236;-83
2021/09/20 08:12:46;;;;;;;4.13;2.27;;;;;;;12.71;75.07;101415.16;5061577;28;20300;-82
2021/09/20 08:15:14;;;;;;;4.43;2.10;;;;;;;12.76;74.51;101410.38;5068464;28;20223;-85
2021/09/20 08:17:40;;;;;;;3.60;2.00;;;;;;;12.79;74.48;101415.53;5069456;28;20594;-84
2021/09/20 08:20:09;;;;;;;3.77;2.10;;;;;;;12.83;74.70;101420.63;5069737;28;20602;-82
2021/09/20 08:22:36;;;;;;;6.10;2.00;;;;;;;12.87;73.84;101413.28;5066577;28;20223;-82
2021/09/20 08:25:04;;;;;;;3.40;2.10;;;;;;;12.90;73.47;101413.06;5064593;28;20202;-83
2021/09/20 08:27:30;;;;;;;5.23;2.33;;;;;;;12.96;73.63;101419.88;5071427;28;20704;-83
2021/09/20 08:29:57;;;;;;;3.23;1.90;;;;;;;13.00;73.31;101422.25;5067058;28;20229;-85
2021/09/20 08:32:25;;;;;;;5.47;2.07;;;;;;;13.06;73.11;101419.22;5064370;28;20653;-81
2021/09/20 08:34:52;;;;;;;4.47;2.00;;;;;;;13.10;72.46;101420.72;5066776;28;20288;-81
2021/09/20 08:37:18;;;;;;;2.53;2.00;;;;;;;13.15;72.47;101416.00;5065235;28;20252;-81
2021/09/20 08:39:47;;;;;;;3.50;1.83;;;;;;;13.17;71.52;101418.59;5063139;28;20289;-81
2021/09/20 08:42:15;;;;;;;4.30;1.90;;;;;;;13.19;71.30;101427.38;5064633;28;20292;-81
2021/09/20 08:44:41;;;;;;;3.63;1.70;;;;;;;13.21;70.52;101425.47;5064497;28;20774;-81
2021/09/20 08:47:09;;;;;;;2.37;1.60;;;;;;;13.27;69.73;101429.56;5063884;28;20230;-81
2021/09/20 08:49:40;;;;;;;3.40;1.97;;;;;;;13.33;69.56;101419.34;5060817;28;20210;-81
2021/09/20 08:52:07;;;;;;;3.23;1.73;;;;;;;13.39;69.10;101420.78;5063824;28;20742;-82
2021/09/20 08:54:33;;;;;;;4.50;1.80;;;;;;;13.45;68.40;101421.25;5059143;28;20202;-81
2021/09/20 08:57:00;;;;;;;3.63;1.83;;;;;;;13.52;68.38;101427.06;5060062;28;20255;-80
2021/09/20 08:59:27;;;;;;;3.40;1.87;;;;;;;13.61;67.94;101428.31;5070391;28;20200;-82
2021/09/20 09:01:55;;;;;;;2.67;1.90;;;;;;;13.71;67.59;101432.13;5074212;28;20296;-81
2021/09/20 09:04:24;;;;;;;4.77;1.80;;;;;;;13.80;67.26;101434.19;5070891;28;20291;-81
2021/09/20 09:06:56;;;;;;;2.63;1.77;;;;;;;13.85;66.53;101434.75;5067002;28;20248;-83
2021/09/20 09:09:28;;;;;;;3.00;1.50;;;;;;;13.92;66.09;101429.88;5066562;28;20277;-84
2021/09/20 09:12:13;;;;;;;3.03;1.83;;;;;;;13.96;65.42;101431.41;5062017;28;20215;-80
2021/09/20 09:14:43;;;;;;;5.00;1.83;;;;;;;14.00;64.48;101432.91;5064358;28;20658;-80
2021/09/20 09:17:13;;;;;;;3.10;1.30;;;;;;;14.04;63.68;101439.78;5061038;28;20224;-81
2021/09/20 09:19:45;;;;;;;3.50;1.40;;;;;;;14.09;63.21;101430.50;5067599;28;20678;-82
2021/09/20 09:22:13;;;;;;;2.20;1.23;;;;;;;14.16;62.11;101441.66;5062560;28;20734;-82
2021/09/20 09:24:53;;;;;;;5.77;1.30;;;;;;;14.22;61.17;101436.75;5061889;28;20239;-81
2021/09/20 09:27:22;;;;;;;1.87;1.30;;;;;;;14.28;60.29;101438.19;5068025;28;20737;-80
2021/09/20 09:29:49;;;;;;;2.10;1.40;;;;;;;14.34;60.13;101429.72;5070092;28;20214;-81
2021/09/20 09:32:18;;;;;;;3.17;1.40;;;;;;;14.46;60.37;101434.31;5072827;28;20209;-80
2021/09/20 09:34:54;;;;;;;2.27;1.53;;;;;;;14.58;59.81;101432.63;5067287;28;20205;-80
2021/09/20 09:37:22;;;;;;;2.50;1.43;;;;;;;14.67;59.12;101429.34;5061931;28;20310;-81
2021/09/20 09:39:49;;;;;;;1.57;1.30;;;;;;;14.76;58.29;101436.72;5065735;28;20790;-81
2021/09/20 09:42:23;;;;;;;1.77;1.30;;;;;;;14.81;57.08;101445.31;5079667;28;20586;-81
2021/09/20 09:44:50;;;;;;;1.63;1.10;;;;;;;14.80;55.37;101445.44;5068440;28;20673;-80
2021/09/20 09:47:25;;;;;;;1.50;1.17;;;;;;;14.80;54.66;101448.97;5062690;28;20292;-81
2021/09/20 09:50:13;;;;;;;2.43;1.20;;;;;;;14.86;54.74;101443.19;5069883;28;20197;-80
2021/09/20 09:52:42;;;;;;;1.30;1.20;;;;;;;14.97;53.99;101444.28;5066086;28;20286;-80
2021/09/20 09:55:10;;;;;;;2.33;1.20;;;;;;;15.01;53.03;101446.63;5071644;28;20568;-80
2021/09/20 09:57:37;;;;;;;2.37;1.37;;;;;;;15.08;52.92;101452.41;5065546;28;20309;-81
2021/09/20 10:00:08;;;;;;;1.63;1.10;;;;;;;15.13;52.53;101443.09;5065607;28;20284;-80
2021/09/20 10:02:37;;;;;;;1.47;1.10;;;;;;;15.16;52.28;101445.56;5059970;28;20658;-80
2021/09/20 10:05:05;;;;;;;2.60;1.30;;;;;;;15.19;51.96;101452.56;5068163;28;20625;-81
2021/09/20 10:07:34;;;;;;;1.80;1.67;;;;;;;15.26;52.20;101452.00;5064722;28;20310;-80
2021/09/20 10:10:05;;;;;;;2.33;1.10;;;;;;;15.29;52.25;101451.78;5065669;28;20229;-82
2021/09/20 10:12:32;;;;;;;2.20;1.50;;;;;;;15.33;51.45;101451.56;5067893;28;20205;-79
2021/09/20 10:15:00;;;;;;;2.13;1.20;;;;;;;15.33;51.38;101448.91;5064602;28;20230;-79
2021/09/20 10:17:29;;;;;;;2.67;1.80;;;;;;;15.33;51.13;101446.22;5071942;28;20266;-79
2021/09/20 10:19:56;;;;;;;2.23;1.40;;;;;;;15.32;51.19;101444.50;5070930;28;20294;-80
2021/09/20 10:22:24;;;;;;;3.73;1.60;;;;;;;15.33;51.47;101451.56;5070305;28;20698;-81
2021/09/20 10:24:53;;;;;;;1.60;1.27;;;;;;;15.36;51.92;101437.94;5075584;28;20708;-78
2021/09/20 10:27:24;;;;;;;1.70;1.30;;;;;;;15.39;51.89;101446.66;5072621;28;20218;-80
2021/09/20 10:29:54;;;;;;;3.40;1.53;;;;;;;15.42;51.47;101450.91;5073504;28;20289;-80
2021/09/20 10:32:22;;;;;;;2.03;1.20;;;;;;;15.43;51.20;101439.22;5071285;28;20231;-81
2021/09/20 10:34:49;;;;;;;3.43;1.40;;;;;;;15.45;51.00;101448.00;5065419;28;20297;-80
2021/09/20 10:37:18;;;;;;;3.47;1.30;;;;;;;15.47;51.09;101443.41;5074449;28;20223;-80
2021/09/20 10:39:54;;;;;;;1.87;1.00;;;;;;;15.50;51.11;101435.13;5058392;28;20207;-80
2021/09/20 10:42:52;;;;;;;1.17;1.07;;;;;;;15.54;50.99;101442.00;5071631;28;20205;-79
2021/09/20 10:45:46;;;;;;;4.63;1.10;;;;;;;15.54;50.68;101442.88;5065942;28;20214;-79
2021/09/20 10:48:30;;;;;;;2.80;1.30;;;;;;;15.55;50.31;101441.03;5066789;28;20222;-82
2021/09/20 10:51:01;;;;;;;1.23;1.13;;;;;;;15.55;50.10;101436.56;5067163;28;20671;-83
2021/09/20 10:53:32;;;;;;;2.20;1.30;;;;;;;15.54;50.08;101437.50;5059830;28;20194;-82
2021/09/20 10:56:20;;;;;;;1.70;1.40;;;;;;;15.54;50.19;101433.94;5065523;28;20678;-82
2021/09/20 10:59:20;;;;;;;3.97;1.00;;;;;;;15.58;50.67;101430.13;5094760;28;20276;-82
2021/09/20 11:01:57;;;;;;;2.17;1.20;;;;;;;15.65;50.46;101435.88;5032348;28;20205;-81
2021/09/20 11:04:31;;;;;;;2.27;1.40;;;;;;;15.69;50.37;101430.19;5083323;28;20200;-83
2021/09/20 11:07:08;;;;;;;2.47;1.30;;;;;;;15.74;50.36;101427.19;5071754;28;20252;-83
2021/09/20 11:10:02;;;;;;;3.37;1.50;;;;;;;15.77;50.28;101433.16;5059879;28;20198;-83
2021/09/20 11:12:29;;;;;;;2.43;1.40;;;;;;;15.79;50.36;101425.84;5068709;28;20242;-83
2021/09/20 11:15:15;;;;;;;3.77;1.50;;;;;;;15.83;50.52;101423.81;5069788;28;20252;-82
2021/09/20 11:17:45;;;;;;;1.53;1.30;;;;;;;15.87;50.51;101419.94;5062121;28;20241;-82
2021/09/20 11:20:19;;;;;;;1.23;1.13;;;;;;;15.88;50.25;101416.28;5068695;28;20217;-82
2021/09/20 11:22:46;;;;;;;2.97;1.60;;;;;;;15.88;49.94;101430.56;5070019;28;20297;-83
2021/09/20 11:25:15;;;;;;;1.47;1.10;;;;;;;15.84;49.98;101426.38;5064995;28;20203;-82
2021/09/20 11:27:44;;;;;;;3.53;1.23;;;;;;;15.78;49.36;101417.91;5060761;28;20796;-82
2021/09/20 11:30:14;;;;;;;2.00;1.30;;;;;;;15.77;49.68;101422.41;5066964;28;20278;-83